createdAt,value
2023-03-12T00:01:23.909Z,63.88
2023-03-12T00:03:52.140Z,61.70
2023-03-12T00:06:20.736Z,58.24
2023-03-12T00:08:49.252Z,57.21
2023-03-12T00:11:22.385Z,58.45
2023-03-12T00:13:55.037Z,61.41
2023-03-12T00:16:22.750Z,65.03
2023-03-12T00:18:52.639Z,66.74
2023-03-12T00:21:20.914Z,64.74
2023-03-12T00:23:50.009Z,62.16
2023-03-12T00:26:17.848Z,59.59
2023-03-12T00:28:45.669Z,56.93
2023-03-12T00:31:17.615Z,57.05
2023-03-12T00:33:45.163Z,60.09
2023-03-12T00:36:16.261Z,60.61
2023-03-12T00:38:44.665Z,63.49
2023-03-12T00:41:12.433Z,66.13
2023-03-12T00:43:39.684Z,63.71
2023-03-12T00:46:06.850Z,62.42
2023-03-12T00:48:34.381Z,60.49
2023-03-12T00:51:01.578Z,58.01
2023-03-12T00:53:28.969Z,57.35
2023-03-12T00:55:56.287Z,60.21
2023-03-12T00:58:23.370Z,60.63
2023-03-12T01:00:50.963Z,64.00
2023-03-12T01:03:18.293Z,66.10
2023-03-12T01:05:45.881Z,63.79
2023-03-12T01:08:13.066Z,61.19
2023-03-12T01:10:43.648Z,58.33
2023-03-12T01:13:10.928Z,55.22
2023-03-12T01:15:38.602Z,56.36
2023-03-12T01:18:05.761Z,60.32
2023-03-12T01:20:33.023Z,60.92
2023-03-12T01:23:00.132Z,66.14
2023-03-12T01:25:27.478Z,65.66
2023-03-12T01:27:54.631Z,63.58
2023-03-12T01:30:21.688Z,61.13
2023-03-12T01:32:48.870Z,57.87
2023-03-12T01:35:17.210Z,57.35
2023-03-12T01:37:45.786Z,59.69
2023-03-12T01:40:26.292Z,63.43
2023-03-12T01:42:55.188Z,66.28
2023-03-12T01:46:04.255Z,64.98
2023-03-12T01:48:38.769Z,61.86
2023-03-12T01:51:08.615Z,59.85
2023-03-12T01:53:36.142Z,56.38
2023-03-12T01:56:03.695Z,56.84
2023-03-12T01:58:34.540Z,59.26
2023-03-12T02:04:00.216Z,65.79
2023-03-12T02:06:53.558Z,63.22
2023-03-12T02:09:22.041Z,60.97
2023-03-12T02:11:49.694Z,58.77
2023-03-12T02:14:17.119Z,56.77
2023-03-12T02:16:44.945Z,58.07
2023-03-12T02:19:34.978Z,59.38
2023-03-12T02:22:04.367Z,65.19
2023-03-12T02:24:41.678Z,64.45
2023-03-12T02:27:10.420Z,63.17
2023-03-12T02:29:39.793Z,60.87
2023-03-12T02:32:09.053Z,59.68
2023-03-12T02:34:36.512Z,57.59
2023-03-12T02:37:05.780Z,56.91
2023-03-12T02:39:32.711Z,58.54
2023-03-12T02:42:01.097Z,63.59
2023-03-12T02:44:31.859Z,65.07
2023-03-12T02:47:01.235Z,63.87
2023-03-12T02:49:31.628Z,61.19
2023-03-12T02:51:58.844Z,59.39
2023-03-12T02:54:27.033Z,57.59
2023-03-12T02:56:55.347Z,57.12
2023-03-12T02:59:26.985Z,59.20
2023-03-12T03:02:00.190Z,63.29
2023-03-12T03:04:29.311Z,66.51
2023-03-12T03:06:56.572Z,66.06
2023-03-12T03:09:25.038Z,63.35
2023-03-12T03:11:52.312Z,61.67
2023-03-12T03:14:19.670Z,59.21
2023-03-12T03:16:46.687Z,56.32
2023-03-12T03:19:13.737Z,56.71
2023-03-12T03:21:40.964Z,58.57
2023-03-12T03:24:08.622Z,61.27
2023-03-12T03:26:36.098Z,65.57
2023-03-12T03:29:03.655Z,66.16
2023-03-12T03:31:31.659Z,64.45
2023-03-12T03:33:58.708Z,62.55
2023-03-12T03:36:25.924Z,60.49
2023-03-12T03:38:53.331Z,57.33
2023-03-12T03:41:21.331Z,57.32
2023-03-12T03:43:48.473Z,60.57
2023-03-12T03:46:16.590Z,63.75
2023-03-12T03:48:43.838Z,65.00
2023-03-12T03:51:11.803Z,63.03
2023-03-12T03:53:39.232Z,60.69
2023-03-12T03:56:09.575Z,57.74
2023-03-12T03:58:37.726Z,58.07
2023-03-12T04:01:07.663Z,62.46
2023-03-12T04:03:35.670Z,64.91
2023-03-12T04:06:04.963Z,63.30
2023-03-12T04:08:35.758Z,61.78
2023-03-12T04:11:12.223Z,58.35
2023-03-12T04:13:39.859Z,58.01
2023-03-12T04:16:08.500Z,61.00
2023-03-12T04:18:39.376Z,64.28
2023-03-12T04:21:08.614Z,63.64
2023-03-12T04:23:36.893Z,62.02
2023-03-12T04:26:05.110Z,60.38
2023-03-12T04:28:34.787Z,57.35
2023-03-12T04:31:05.099Z,56.64
2023-03-12T04:33:36.123Z,58.73
2023-03-12T04:36:03.225Z,63.89
2023-03-12T04:38:30.624Z,64.21
2023-03-12T04:41:08.586Z,62.37
2023-03-12T04:43:36.328Z,60.63
2023-03-12T04:46:03.796Z,57.85
2023-03-12T04:48:31.193Z,56.87
2023-03-12T04:50:58.489Z,60.72
2023-03-12T04:53:26.364Z,64.31
2023-03-12T04:55:53.786Z,64.69
2023-03-12T04:58:22.416Z,63.19
2023-03-12T05:00:50.367Z,60.06
2023-03-12T05:03:18.358Z,58.18
2023-03-12T05:05:45.507Z,59.19
2023-03-12T05:08:13.300Z,63.60
2023-03-12T05:10:40.901Z,64.15
2023-03-12T05:13:16.014Z,62.90
2023-03-12T05:15:44.052Z,60.83
2023-03-12T05:18:12.782Z,58.14
2023-03-12T05:20:40.292Z,58.81
2023-03-12T05:23:08.259Z,59.48
2023-03-12T05:25:40.827Z,64.00
2023-03-12T05:28:09.234Z,64.95
2023-03-12T05:30:36.692Z,62.12
2023-03-12T05:33:03.654Z,60.10
2023-03-12T05:35:32.069Z,57.46
2023-03-12T05:37:59.243Z,57.46
2023-03-12T05:40:26.101Z,61.28
2023-03-12T05:42:53.852Z,63.33
2023-03-12T05:45:21.123Z,62.20
2023-03-12T05:47:48.298Z,59.97
2023-03-12T05:50:17.336Z,57.50
2023-03-12T05:52:44.332Z,57.81
2023-03-12T05:55:11.701Z,59.48
2023-03-12T05:57:38.805Z,62.37
2023-03-12T06:00:07.468Z,62.99
2023-03-12T06:02:34.748Z,61.17
2023-03-12T06:05:02.601Z,58.56
2023-03-12T06:07:30.018Z,56.09
2023-03-12T06:09:57.643Z,58.74
2023-03-12T06:12:25.402Z,61.26
2023-03-12T06:14:52.436Z,64.14
2023-03-12T06:17:20.022Z,64.89
2023-03-12T06:19:50.976Z,61.51
2023-03-12T06:22:18.117Z,59.22
2023-03-12T06:24:47.688Z,56.36
2023-03-12T06:27:16.785Z,58.69
2023-03-12T06:29:47.433Z,57.84
2023-03-12T06:32:15.397Z,61.84
2023-03-12T06:34:43.425Z,63.22
2023-03-12T06:37:11.105Z,61.32
2023-03-12T06:39:38.700Z,57.63
2023-03-12T06:42:06.254Z,57.86
2023-03-12T06:44:33.510Z,59.88
2023-03-12T06:47:00.463Z,62.06
2023-03-12T06:49:33.107Z,64.59
2023-03-12T06:52:00.093Z,62.89
2023-03-12T06:54:27.107Z,58.41
2023-03-12T06:56:54.517Z,57.97
2023-03-12T06:59:22.235Z,60.16
2023-03-12T07:01:50.035Z,61.65
2023-03-12T07:04:18.131Z,63.59
2023-03-12T07:06:45.086Z,63.69
2023-03-12T07:09:12.095Z,58.78
2023-03-12T07:11:39.347Z,56.91
2023-03-12T07:14:06.767Z,58.90
2023-03-12T07:16:33.981Z,60.49
2023-03-12T07:19:02.533Z,62.80
2023-03-12T07:21:30.459Z,62.03
2023-03-12T07:23:58.190Z,58.61
2023-03-12T07:26:26.314Z,57.14
2023-03-12T07:28:53.326Z,59.38
2023-03-12T07:31:20.295Z,60.89
2023-03-12T07:33:47.681Z,62.09
2023-03-12T07:36:15.088Z,62.41
2023-03-12T07:38:42.361Z,59.20
2023-03-12T07:41:09.433Z,56.48
2023-03-12T07:43:36.509Z,57.69
2023-03-12T07:46:03.615Z,58.68
2023-03-12T07:48:31.695Z,61.43
2023-03-12T07:50:58.723Z,63.33
2023-03-12T07:53:25.880Z,61.51
2023-03-12T07:55:53.815Z,57.10
2023-03-12T07:58:21.026Z,57.10
2023-03-12T08:00:48.230Z,58.18
2023-03-12T08:03:15.969Z,59.60
2023-03-12T08:05:43.254Z,61.49
2023-03-12T08:08:10.711Z,62.03
2023-03-12T08:10:38.619Z,61.68
2023-03-12T08:13:05.931Z,58.64
2023-03-12T08:15:33.709Z,57.32
2023-03-12T08:18:01.791Z,58.74
2023-03-12T08:20:29.880Z,60.76
2023-03-12T08:22:57.098Z,61.93
2023-03-12T08:25:25.032Z,62.93
2023-03-12T08:27:53.336Z,61.07
2023-03-12T08:30:21.044Z,56.33
2023-03-12T08:32:48.198Z,56.85
2023-03-12T08:35:15.339Z,58.67
2023-03-12T08:37:43.570Z,58.50
2023-03-12T08:40:13.726Z,60.31
2023-03-12T08:42:45.704Z,60.81
2023-03-12T08:45:13.503Z,61.14
2023-03-12T08:47:42.051Z,62.29
2023-03-12T08:50:11.654Z,63.27
2023-03-12T08:52:39.341Z,59.46
2023-03-12T08:55:07.072Z,57.45
2023-03-12T08:57:34.091Z,57.93
2023-03-12T09:00:01.469Z,58.11
2023-03-12T09:02:29.133Z,58.20
2023-03-12T09:04:56.162Z,57.18
2023-03-12T09:07:23.118Z,56.81
2023-03-12T09:09:50.164Z,58.24
2023-03-12T09:12:17.343Z,59.33
2023-03-12T09:17:32.851Z,57.48
2023-03-12T09:20:00.906Z,57.52
2023-03-12T09:22:30.596Z,58.21
2023-03-12T09:24:57.869Z,58.23
2023-03-12T09:27:25.326Z,58.95
2023-03-12T09:30:00.237Z,58.62
2023-03-12T09:32:29.504Z,58.30
2023-03-12T09:34:57.105Z,58.40
2023-03-12T09:37:24.589Z,58.88
2023-03-12T09:39:53.842Z,58.29
2023-03-12T09:42:33.611Z,58.34
2023-03-12T09:45:04.910Z,58.28
2023-03-12T09:47:48.217Z,57.81
2023-03-12T09:50:28.025Z,57.91
2023-03-12T09:53:13.507Z,54.19
2023-03-12T09:55:43.836Z,55.34
2023-03-12T09:58:16.601Z,56.34
2023-03-12T10:00:44.875Z,57.86
2023-03-12T10:03:43.227Z,57.04
2023-03-12T10:06:15.916Z,57.20
2023-03-12T10:09:11.451Z,56.78
2023-03-12T10:12:14.300Z,55.49
2023-03-12T10:15:23.669Z,55.45
2023-03-12T10:18:17.242Z,55.76
2023-03-12T10:20:58.355Z,54.12
2023-03-12T10:24:03.462Z,56.31
2023-03-12T10:26:40.812Z,57.44
2023-03-12T10:29:33.200Z,57.26
2023-03-12T10:32:16.956Z,56.16
2023-03-12T10:34:56.833Z,55.49
2023-03-12T10:37:42.216Z,57.36
2023-03-12T10:40:18.719Z,57.45
2023-03-12T10:42:47.852Z,57.28
2023-03-12T10:45:24.662Z,58.01
2023-03-12T10:47:57.836Z,57.50
2023-03-12T10:50:30.981Z,56.58
2023-03-12T10:53:24.551Z,56.69
2023-03-12T10:56:14.252Z,57.35
2023-03-12T10:58:45.083Z,56.78
2023-03-12T11:01:25.626Z,57.68
2023-03-12T11:03:54.796Z,58.60
2023-03-12T11:06:26.670Z,58.65
2023-03-12T11:09:17.132Z,58.56
2023-03-12T11:11:48.057Z,58.58
2023-03-12T11:14:22.298Z,57.55
2023-03-12T11:16:51.350Z,57.96
2023-03-12T11:19:35.453Z,58.12
2023-03-12T11:22:07.503Z,58.40
2023-03-12T11:24:35.545Z,58.90
2023-03-12T11:27:31.845Z,59.21
2023-03-12T11:30:01.171Z,57.85
2023-03-12T11:32:29.735Z,56.23
2023-03-12T11:34:57.097Z,56.22
2023-03-12T11:37:58.193Z,55.77
2023-03-12T11:40:28.031Z,56.18
2023-03-12T11:43:13.099Z,57.18
2023-03-12T11:46:06.717Z,56.02
2023-03-12T11:49:06.326Z,55.82
2023-03-12T11:51:52.372Z,56.56
2023-03-12T11:54:49.522Z,57.28
2023-03-12T11:57:29.474Z,57.33
2023-03-12T12:00:14.630Z,56.66
2023-03-12T12:03:15.598Z,56.54
2023-03-12T12:06:01.386Z,55.07
2023-03-12T12:08:43.777Z,55.69
2023-03-12T12:11:26.187Z,55.89
2023-03-12T12:14:14.246Z,55.97
2023-03-12T12:17:04.142Z,56.07
2023-03-12T12:19:52.883Z,57.37
2023-03-12T12:22:30.488Z,54.29
2023-03-12T12:25:26.358Z,53.12
2023-03-12T12:28:22.288Z,53.23
2023-03-12T12:31:09.618Z,55.04
2023-03-12T12:34:23.872Z,54.96
2023-03-12T12:37:17.123Z,54.48
2023-03-12T12:40:27.358Z,54.85
2023-03-12T12:43:07.256Z,54.80
2023-03-12T12:45:40.406Z,54.89
2023-03-12T12:48:15.667Z,55.04
2023-03-12T12:50:45.128Z,54.73
2023-03-12T12:53:22.768Z,54.90
2023-03-12T12:56:00.428Z,54.64
2023-03-12T12:58:50.403Z,55.09
2023-03-12T13:01:18.956Z,54.39
2023-03-12T13:03:48.205Z,55.13
2023-03-12T13:06:15.777Z,55.54
2023-03-12T13:08:43.505Z,55.51
2023-03-12T13:11:18.670Z,53.60
2023-03-12T13:13:49.721Z,53.73
2023-03-12T13:16:35.031Z,54.31
2023-03-12T13:19:26.643Z,54.78
2023-03-12T13:22:25.648Z,54.31
2023-03-12T13:24:59.571Z,54.41
2023-03-12T13:27:31.314Z,54.26
2023-03-12T13:29:59.683Z,53.90
2023-03-12T13:32:36.406Z,54.49
2023-03-12T13:35:21.838Z,54.26
2023-03-12T13:37:52.230Z,54.83
2023-03-12T13:40:51.585Z,54.60
2023-03-12T13:43:36.352Z,53.93
2023-03-12T13:46:43.556Z,53.30
2023-03-12T13:49:14.439Z,52.92
2023-03-12T13:52:18.201Z,53.43
2023-03-12T13:54:49.926Z,53.32
2023-03-12T13:57:46.602Z,53.26
2023-03-12T14:00:27.081Z,53.29
2023-03-12T14:03:13.840Z,53.33
2023-03-12T14:05:58.139Z,53.50
2023-03-12T14:08:56.236Z,53.88
2023-03-12T14:11:36.199Z,54.26
2023-03-12T14:14:45.759Z,54.26
2023-03-12T14:17:25.332Z,54.18
2023-03-12T14:19:59.947Z,54.82
2023-03-12T14:22:33.233Z,54.89
2023-03-12T14:25:14.005Z,54.86
2023-03-12T14:27:42.284Z,54.58
2023-03-12T14:30:13.130Z,54.45
2023-03-12T14:32:43.010Z,54.21
2023-03-12T14:35:30.816Z,54.30
2023-03-12T14:38:07.146Z,54.01
2023-03-12T14:40:34.316Z,53.88
2023-03-12T14:43:19.353Z,54.30
2023-03-12T14:45:46.855Z,53.79
2023-03-12T14:48:14.284Z,53.85
2023-03-12T14:50:42.081Z,53.90
2023-03-12T14:53:19.863Z,53.72
2023-03-12T14:55:46.982Z,53.56
2023-03-12T14:58:20.837Z,53.83
2023-03-12T15:01:00.811Z,54.06
2023-03-12T15:03:30.289Z,54.29
2023-03-12T15:05:59.277Z,53.99
2023-03-12T15:08:36.968Z,54.09
2023-03-12T15:11:04.488Z,54.17
2023-03-12T15:13:33.128Z,54.75
2023-03-12T15:16:00.600Z,55.08
2023-03-12T15:18:33.667Z,55.12
2023-03-12T15:21:03.636Z,55.24
2023-03-12T15:23:37.436Z,55.00
2023-03-12T15:26:29.852Z,54.52
2023-03-12T15:28:58.711Z,54.50
2023-03-12T15:31:26.511Z,54.82
2023-03-12T15:34:04.760Z,54.57
2023-03-12T15:36:35.442Z,54.60
2023-03-12T15:39:13.387Z,54.98
2023-03-12T15:41:49.941Z,55.56
2023-03-12T15:44:30.218Z,55.56
2023-03-12T15:47:08.562Z,55.47
2023-03-12T15:49:39.783Z,56.05
2023-03-12T15:52:22.546Z,56.23
2023-03-12T15:55:10.509Z,55.96
2023-03-12T15:57:57.122Z,55.71
2023-03-12T16:00:28.710Z,56.28
2023-03-12T16:03:00.277Z,56.34
2023-03-12T16:05:34.838Z,56.14
2023-03-12T16:08:34.051Z,56.65
2023-03-12T16:11:01.719Z,56.48
2023-03-12T16:13:32.641Z,56.27
2023-03-12T16:16:02.211Z,56.60
2023-03-12T16:18:30.531Z,57.01
2023-03-12T16:20:57.523Z,57.24
2023-03-12T16:23:25.495Z,57.62
2023-03-12T16:25:56.905Z,57.69
2023-03-12T16:28:25.381Z,57.78
2023-03-12T16:30:53.686Z,58.26
2023-03-12T16:33:24.372Z,58.61
2023-03-12T16:35:52.517Z,58.37
2023-03-12T16:38:20.422Z,58.81
2023-03-12T16:40:50.310Z,58.88
2023-03-12T16:43:21.982Z,59.51
2023-03-12T16:45:51.058Z,59.75
2023-03-12T16:48:21.815Z,59.75
2023-03-12T16:50:57.987Z,60.64
2023-03-12T16:53:26.125Z,60.97
2023-03-12T16:56:01.605Z,61.13
2023-03-12T16:58:31.228Z,61.29
2023-03-12T17:00:59.213Z,61.93
2023-03-12T17:03:38.137Z,61.86
2023-03-12T17:06:07.417Z,61.67
2023-03-12T17:08:36.372Z,62.03
2023-03-12T17:11:04.825Z,61.98
2023-03-12T17:13:31.851Z,61.76
2023-03-12T17:15:59.993Z,61.73
2023-03-12T17:18:28.443Z,61.80
2023-03-12T17:20:56.569Z,61.79
2023-03-12T17:23:25.110Z,61.65
2023-03-12T17:25:52.508Z,61.59
2023-03-12T17:28:19.657Z,61.30
2023-03-12T17:30:48.019Z,61.27
2023-03-12T17:33:18.456Z,61.32
2023-03-12T17:35:46.333Z,61.31
2023-03-12T17:38:15.197Z,61.51
2023-03-12T17:40:44.506Z,61.48
2023-03-12T17:43:13.035Z,61.87
2023-03-12T17:45:40.204Z,61.99
2023-03-12T17:48:07.512Z,62.15
2023-03-12T17:50:36.094Z,62.19
2023-03-12T17:53:04.511Z,62.20
2023-03-12T17:55:32.367Z,62.98
2023-03-12T17:57:59.562Z,60.39
2023-03-12T18:00:28.278Z,58.09
2023-03-12T18:02:56.073Z,58.41
2023-03-12T18:05:23.416Z,59.33
2023-03-12T18:07:51.680Z,60.77
2023-03-12T18:10:20.236Z,61.63
2023-03-12T18:12:58.848Z,63.16
2023-03-12T18:15:26.270Z,67.77
2023-03-12T18:17:56.911Z,67.36
2023-03-12T18:20:37.536Z,64.21
2023-03-12T18:23:05.660Z,55.60
2023-03-12T18:25:32.677Z,54.85
2023-03-12T18:28:00.010Z,55.63
2023-03-12T18:30:28.665Z,56.60
2023-03-12T18:32:55.858Z,57.80
2023-03-12T18:35:23.077Z,59.14
2023-03-12T18:37:52.734Z,59.99
2023-03-12T18:40:20.054Z,61.21
2023-03-12T18:42:47.226Z,62.02
2023-03-12T18:45:14.694Z,61.83
2023-03-12T18:47:45.046Z,63.40
2023-03-12T18:50:12.949Z,65.16
2023-03-12T18:52:40.503Z,63.38
2023-03-12T18:55:07.844Z,58.48
2023-03-12T18:57:34.865Z,56.30
2023-03-12T19:00:01.942Z,56.20
2023-03-12T19:02:29.080Z,56.56
2023-03-12T19:04:57.129Z,57.65
2023-03-12T19:07:24.712Z,59.03
2023-03-12T19:09:51.748Z,60.52
2023-03-12T19:12:19.624Z,62.37
2023-03-12T19:14:47.881Z,63.08
2023-03-12T19:17:14.909Z,62.72
2023-03-12T19:19:42.148Z,63.82
2023-03-12T19:22:09.659Z,62.45
2023-03-12T19:24:38.028Z,57.84
2023-03-12T19:27:05.664Z,53.56
2023-03-12T19:29:33.305Z,54.24
2023-03-12T19:32:00.338Z,55.74
2023-03-12T19:34:27.404Z,58.33
2023-03-12T19:36:55.046Z,59.14
2023-03-12T19:39:22.263Z,60.25
2023-03-12T19:41:51.321Z,61.57
2023-03-12T19:44:19.013Z,64.08
2023-03-12T19:46:46.001Z,67.01
2023-03-12T19:49:13.946Z,62.87
2023-03-12T19:51:41.845Z,57.48
2023-03-12T19:54:09.525Z,56.13
2023-03-12T19:56:36.784Z,58.09
2023-03-12T19:59:04.557Z,59.66
2023-03-12T20:01:31.484Z,61.18
2023-03-12T20:03:58.840Z,63.41
2023-03-12T20:06:26.672Z,63.01
2023-03-12T20:08:53.853Z,63.16
2023-03-12T20:11:20.999Z,60.71
2023-03-12T20:13:48.539Z,56.41
2023-03-12T20:16:17.260Z,54.89
2023-03-12T20:18:45.808Z,56.64
2023-03-12T20:21:13.541Z,57.85
2023-03-12T20:23:40.838Z,58.70
2023-03-12T20:26:08.699Z,59.80
2023-03-12T20:28:36.070Z,61.45
2023-03-12T20:31:15.110Z,62.19
2023-03-12T20:33:42.805Z,64.96
2023-03-12T20:36:13.737Z,64.65
2023-03-12T20:38:41.433Z,62.51
2023-03-12T20:41:15.877Z,60.84
2023-03-12T20:43:43.972Z,56.93
2023-03-12T20:46:12.298Z,55.00
2023-03-12T20:48:39.762Z,56.68
2023-03-12T20:51:06.991Z,58.34
2023-03-12T20:53:34.063Z,59.96
2023-03-12T20:56:01.732Z,59.87
2023-03-12T20:58:28.827Z,60.77
2023-03-12T21:00:56.549Z,63.18
2023-03-12T21:03:24.842Z,65.31
2023-03-12T21:05:57.372Z,64.40
2023-03-12T21:08:26.376Z,61.09
2023-03-12T21:10:53.528Z,57.96
2023-03-12T21:13:23.904Z,56.18
2023-03-12T21:15:51.360Z,57.78
2023-03-12T21:18:19.258Z,59.17
2023-03-12T21:20:46.427Z,59.73
2023-03-12T21:23:13.853Z,60.47
2023-03-12T21:25:42.232Z,62.07
2023-03-12T21:28:12.324Z,66.19
2023-03-12T21:30:39.936Z,68.47
2023-03-12T21:33:07.861Z,65.90
2023-03-12T21:35:35.332Z,62.06
2023-03-12T21:38:03.146Z,57.21
2023-03-12T21:40:30.263Z,55.91
2023-03-12T21:42:58.360Z,57.05
2023-03-12T21:45:27.833Z,59.61
2023-03-12T21:47:54.989Z,59.99
2023-03-12T21:50:22.578Z,59.95
2023-03-12T21:52:51.122Z,62.71
2023-03-12T21:55:19.454Z,65.22
2023-03-12T21:57:46.673Z,62.03
2023-03-12T22:00:17.312Z,58.66
2023-03-12T22:02:46.332Z,56.71
2023-03-12T22:05:14.528Z,57.58
2023-03-12T22:07:42.308Z,58.89
2023-03-12T22:10:12.249Z,62.31
2023-03-12T22:12:40.692Z,66.34
2023-03-12T22:15:10.042Z,63.31
2023-03-12T22:17:37.429Z,59.25
2023-03-12T22:20:06.340Z,57.32
2023-03-12T22:22:36.548Z,57.73
2023-03-12T22:25:03.893Z,58.50
2023-03-12T22:27:31.330Z,62.01
2023-03-12T22:30:02.519Z,65.54
2023-03-12T22:32:29.646Z,64.27
2023-03-12T22:35:28.582Z,61.14
2023-03-12T22:39:00.286Z,56.52
2023-03-12T22:47:03.220Z,57.92
2023-03-12T22:50:30.749Z,60.47
2023-03-12T22:53:58.049Z,63.92
2023-03-12T22:57:44.675Z,63.33
2023-03-12T23:01:32.513Z,56.10
2023-03-12T23:05:18.551Z,55.18
2023-03-12T23:09:05.532Z,54.79
2023-03-12T23:12:51.897Z,57.26
2023-03-12T23:16:31.485Z,59.14
2023-03-12T23:20:07.065Z,65.41
2023-03-12T23:23:56.800Z,65.07
2023-03-12T23:27:23.472Z,57.06
2023-03-12T23:31:12.830Z,55.95
2023-03-12T23:35:00.474Z,58.85
2023-03-12T23:38:50.775Z,62.12
2023-03-12T23:42:37.070Z,66.32
2023-03-12T23:46:23.890Z,65.07
2023-03-12T23:50:10.629Z,58.18
2023-03-12T23:53:57.691Z,54.92
2023-03-12T23:57:44.313Z,56.08
